Time;durP1;ratioP1;P1;durP2;ratioP2;P2;SDS_P1;SDS_P2;PMS_P1;PMS_P2;Temp;Humidity;BMP_temperature;BMP_pressure;BME280_temperature;BME280_humidity;BME280_pressure;Samples;Min_cycle;Max_cycle;Signal;HPM_P1;HPM_P2
2023/09/30 00:01:30;;;;;;;;;;;;;;;15.08;100.00;98129.66;5004701;28;19928;-60
2023/09/30 00:03:57;;;;;;;;;;;;;;;14.85;100.00;98125.41;5002970;28;19925;-60
2023/09/30 00:06:24;;;;;;;;;;;;;;;14.85;100.00;98119.97;5004517;28;19922;-60
2023/09/30 00:08:51;;;;;;;;;;;;;;;14.93;100.00;98121.41;5003315;28;19976;-60
2023/09/30 00:11:18;;;;;;;;;;;;;;;14.92;100.00;98117.84;5004291;28;19921;-60
2023/09/30 00:13:45;;;;;;;;;;;;;;;14.99;100.00;98109.44;5003685;28;19921;-60
2023/09/30 00:16:12;;;;;;;;;;;;;;;15.07;100.00;98117.13;5003472;28;19983;-60
2023/09/30 00:18:40;;;;;;;;;;;;;;;15.17;100.00;98100.00;5004549;28;19926;-60
2023/09/30 00:21:07;;;;;;;;;;;;;;;15.25;100.00;98098.66;5002863;28;19945;-60
2023/09/30 00:23:34;;;;;;;;;;;;;;;15.28;100.00;98102.78;5003528;28;19968;-60
2023/09/30 00:26:00;;;;;;;;;;;;;;;15.28;100.00;98106.34;5003672;28;19921;-60
2023/09/30 00:28:28;;;;;;;;;;;;;;;15.29;100.00;98101.72;5003760;28;19933;-61
2023/09/30 00:30:55;;;;;;;;;;;;;;;15.28;100.00;98098.16;5003145;28;19921;-60
2023/09/30 00:33:23;;;;;;;;;;;;;;;15.33;100.00;98102.78;5003686;28;19921;-60
2023/09/30 00:35:49;;;;;;;;;;;;;;;15.36;100.00;98101.47;5003527;28;19932;-60
2023/09/30 00:38:16;;;;;;;;;;;;;;;15.39;100.00;98106.38;4985044;28;19921;-60
2023/09/30 00:40:49;;;;;;;;;;;;;;;15.39;100.00;98107.22;5003642;28;19975;-61
2023/09/30 00:43:19;;;;;;;;;;;;;;;15.37;100.00;98114.81;4998181;28;19922;-60
2023/09/30 00:45:46;;;;;;;;;;;;;;;15.40;100.00;98116.22;5007702;28;19944;-60
2023/09/30 00:48:13;;;;;;;;;;;;;;;15.40;100.00;98117.03;5011128;28;19933;-60
2023/09/30 00:50:40;;;;;;;;;;;;;;;15.46;100.00;98115.97;5007658;28;19961;-60
2023/09/30 00:53:07;;;;;;;;;;;;;;;15.48;100.00;98127.44;5004167;28;19921;-60
2023/09/30 00:55:33;;;;;;;;;;;;;;;15.47;100.00;98123.06;5007327;28;19921;-60
2023/09/30 00:58:00;;;;;;;;;;;;;;;15.47;100.00;98128.53;5004924;28;19928;-60
2023/09/30 01:00:27;;;;;;;;;;;;;;;15.37;100.00;98122.22;5007228;28;19925;-60
2023/09/30 01:02:53;;;;;;;;;;;;;;;15.40;100.00;98116.22;5005810;28;19922;-61
2023/09/30 01:05:20;;;;;;;;;;;;;;;15.35;100.00;98119.75;5007203;28;20426;-60
2023/09/30 01:07:46;;;;;;;;;;;;;;;15.32;100.00;98123.81;5010411;28;19921;-60
2023/09/30 01:10:13;;;;;;;;;;;;;;;15.32;100.00;98123.81;5005246;28;19922;-60
2023/09/30 01:12:39;;;;;;;;;;;;;;;15.34;100.00;98124.38;5004604;28;20338;-61
2023/09/30 01:15:06;;;;;;;;;;;;;;;15.33;100.00;98124.63;5006009;28;20396;-61
2023/09/30 01:17:34;;;;;;;;;;;;;;;15.33;100.00;98119.16;5007065;28;19921;-60
2023/09/30 01:20:00;;;;;;;;;;;;;;;15.26;100.00;98119.41;5007113;28;19921;-60
2023/09/30 01:22:29;;;;;;;;;;;;;;;15.21;100.00;98122.94;5004490;28;19979;-60
2023/09/30 01:24:56;;;;;;;;;;;;;;;15.23;100.00;98121.84;4993084;28;19921;-61
2023/09/30 01:27:23;;;;;;;;;;;;;;;15.17;100.00;98129.19;5006975;28;20350;-60
2023/09/30 01:29:50;;;;;;;;;;;;;;;15.15;100.00;98139.53;5008461;28;19967;-60
2023/09/30 01:32:16;;;;;;;;;;;;;;;15.09;100.00;98138.69;5005856;28;19921;-61
2023/09/30 01:34:44;;;;;;;;;;;;;;;14.95;100.00;98144.59;5003266;28;19921;-61
2023/09/30 01:37:10;;;;;;;;;;;;;;;14.98;100.00;98140.53;5005281;28;19932;-60
2023/09/30 01:39:36;;;;;;;;;;;;;;;15.01;100.00;98142.72;5007518;28;19929;-60
2023/09/30 01:42:03;;;;;;;;;;;;;;;15.00;100.00;98138.34;5004990;28;19952;-60
2023/09/30 01:44:32;;;;;;;;;;;;;;;15.00;100.00;98132.09;5010606;28;19945;-60
2023/09/30 01:46:59;;;;;;;;;;;;;;;14.95;100.00;98136.41;5004009;28;19933;-61
2023/09/30 01:49:26;;;;;;;;;;;;;;;14.89;100.00;98132.00;5005794;28;20447;-60
2023/09/30 01:51:54;;;;;;;;;;;;;;;14.80;100.00;98128.13;4993848;28;19972;-60
2023/09/30 01:54:21;;;;;;;;;;;;;;;14.79;100.00;98129.19;5005229;28;19922;-60
2023/09/30 01:56:47;;;;;;;;;;;;;;;14.65;100.00;98135.06;5005268;28;20028;-60
2023/09/30 01:59:14;;;;;;;;;;;;;;;14.61;100.00;98135.84;4987812;28;19959;-60
2023/09/30 02:01:40;;;;;;;;;;;;;;;14.65;100.00;98128.78;4987831;28;19960;-60
2023/09/30 02:04:07;;;;;;;;;;;;;;;14.74;100.00;98129.13;5004048;28;19921;-60
2023/09/30 02:06:34;;;;;;;;;;;;;;;14.74;100.00;98129.94;5005704;28;19930;-60
2023/09/30 02:09:00;;;;;;;;;;;;;;;14.79;100.00;98138.22;5003454;28;19921;-60
2023/09/30 02:11:27;;;;;;;;;;;;;;;14.71;100.00;98135.94;4990486;28;20012;-60
2023/09/30 02:13:54;;;;;;;;;;;;;;;14.72;100.00;98143.03;5003243;28;20385;-61
2023/09/30 02:16:22;;;;;;;;;;;;;;;14.77;100.00;98139.53;5004518;28;20552;-60
2023/09/30 02:18:50;;;;;;;;;;;;;;;14.79;100.00;98140.09;5004977;28;19953;-61
2023/09/30 02:21:17;;;;;;;;;;;;;;;14.80;100.00;98139.03;4997221;28;19921;-60
2023/09/30 02:23:48;;;;;;;;;;;;;;;14.77;100.00;98142.25;5004279;28;19928;-60
2023/09/30 02:26:14;;;;;;;;;;;;;;;14.76;100.00;98132.41;5004794;28;20336;-60
2023/09/30 02:28:41;;;;;;;;;;;;;;;14.73;100.00;98136.47;5004827;28;19972;-60
2023/09/30 02:31:07;;;;;;;;;;;;;;;14.68;100.00;98139.19;4995580;28;20356;-61
2023/09/30 02:33:35;;;;;;;;;;;;;;;14.63;100.00;98139.13;5005931;28;19976;-60
2023/09/30 02:36:05;;;;;;;;;;;;;;;14.67;100.00;98132.09;5004003;28;19925;-60
2023/09/30 02:38:31;;;;;;;;;;;;;;;14.68;100.00;98133.72;5005345;28;19921;-60
2023/09/30 02:41:02;;;;;;;;;;;;;;;14.67;100.00;98145.72;5003451;28;20010;-60
2023/09/30 02:43:29;;;;;;;;;;;;;;;14.56;100.00;98147.53;5005197;28;19921;-61
2023/09/30 02:45:55;;;;;;;;;;;;;;;14.55;100.00;98149.44;5003960;28;19925;-60
2023/09/30 02:48:22;;;;;;;;;;;;;;;14.46;100.00;98140.09;5005261;28;20628;-60
2023/09/30 02:50:49;;;;;;;;;;;;;;;14.38;100.00;98133.19;5004524;28;19929;-60
2023/09/30 02:53:15;;;;;;;;;;;;;;;14.18;100.00;98137.38;5002720;28;19921;-60
2023/09/30 02:55:42;;;;;;;;;;;;;;;14.22;100.00;98139.59;4987488;28;19957;-60
2023/09/30 02:58:10;;;;;;;;;;;;;;;14.27;100.00;98151.31;5003233;28;20560;-61
2023/09/30 03:00:37;;;;;;;;;;;;;;;14.28;100.00;98150.28;5004905;28;19922;-61
2023/09/30 03:03:04;;;;;;;;;;;;;;;14.23;100.00;98163.81;5002919;28;20308;-60
2023/09/30 03:05:33;;;;;;;;;;;;;;;14.24;100.00;98162.75;5004335;28;19925;-60
2023/09/30 03:08:00;;;;;;;;;;;;;;;14.31;100.00;98163.34;4986311;28;19925;-60
2023/09/30 03:10:27;;;;;;;;;;;;;;;14.35;100.00;98160.13;4989043;28;19937;-60
2023/09/30 03:12:54;;;;;;;;;;;;;;;14.38;100.00;98159.63;5002312;28;19925;-61
2023/09/30 03:15:20;;;;;;;;;;;;;;;14.44;100.00;98153.97;5004667;28;20036;-60
2023/09/30 03:17:48;;;;;;;;;;;;;;;14.48;100.00;98156.97;5004012;28;19929;-60
2023/09/30 03:20:20;;;;;;;;;;;;;;;14.49;100.00;98155.91;5002755;28;20004;-60
2023/09/30 03:22:47;;;;;;;;;;;;;;;14.51;100.00;98150.19;5003575;28;19921;-60
2023/09/30 03:25:17;;;;;;;;;;;;;;;14.59;100.00;98157.09;5001601;28;19922;-60
2023/09/30 03:27:47;;;;;;;;;;;;;;;14.50;100.00;98171.19;5004621;28;19921;-60
2023/09/30 03:30:15;;;;;;;;;;;;;;;14.36;100.00;98175.38;5003381;28;20389;-60
2023/09/30 03:32:42;;;;;;;;;;;;;;;14.30;100.00;98174.53;5004368;28;20343;-60
2023/09/30 03:35:16;;;;;;;;;;;;;;;14.33;100.00;98163.09;5003439;28;19985;-60
2023/09/30 03:37:44;;;;;;;;;;;;;;;14.37;100.00;98156.06;5004987;28;19928;-60
2023/09/30 03:40:18;;;;;;;;;;;;;;;14.34;100.00;98164.75;5003008;28;19929;-60
2023/09/30 03:42:45;;;;;;;;;;;;;;;14.41;100.00;98159.13;4998162;28;20428;-60
2023/09/30 03:45:13;;;;;;;;;;;;;;;14.36;100.00;98148.13;5003910;28;20529;-60
2023/09/30 03:47:40;;;;;;;;;;;;;;;14.36;100.00;98140.81;5004046;28;19956;-60
2023/09/30 03:50:14;;;;;;;;;;;;;;;14.37;100.00;98136.19;5003788;28;19922;-60
2023/09/30 03:52:44;;;;;;;;;;;;;;;14.37;100.00;98137.00;5004247;28;20035;-60
2023/09/30 03:55:12;;;;;;;;;;;;;;;14.35;100.00;98141.88;5002344;28;20016;-60
2023/09/30 03:57:38;;;;;;;;;;;;;;;14.34;100.00;98140.22;5004418;28;19921;-60
2023/09/30 04:00:11;;;;;;;;;;;;;;;14.26;100.00;98146.97;5003073;28;20022;-60
2023/09/30 04:02:42;;;;;;;;;;;;;;;14.17;100.00;98152.06;5000163;28;19922;-60
2023/09/30 04:05:14;;;;;;;;;;;;;;;14.11;100.00;98161.25;5003097;28;19932;-60
2023/09/30 04:07:42;;;;;;;;;;;;;;;14.08;100.00;98150.84;5004105;28;19960;-60
2023/09/30 04:10:09;;;;;;;;;;;;;;;14.12;100.00;98156.63;5005336;28;19928;-60
2023/09/30 04:12:35;;;;;;;;;;;;;;;14.12;100.00;98160.16;5003758;28;19925;-61
2023/09/30 04:15:03;;;;;;;;;;;;;;;14.08;100.00;98163.66;5003126;28;20013;-60
2023/09/30 04:17:30;;;;;;;;;;;;;;;13.89;100.00;98159.38;5004507;28;19933;-61
2023/09/30 04:19:57;;;;;;;;;;;;;;;13.70;100.00;98158.03;5008661;28;19921;-60
2023/09/30 04:22:25;;;;;;;;;;;;;;;13.61;100.00;98161.22;5007775;28;19929;-60
2023/09/30 04:24:52;;;;;;;;;;;;;;;13.62;100.00;98173.75;5007625;28;19921;-61
2023/09/30 04:27:20;;;;;;;;;;;;;;;13.65;100.00;98172.41;5008437;28;20317;-60
2023/09/30 04:29:46;;;;;;;;;;;;;;;13.67;100.00;98172.16;5008213;28;20304;-60
2023/09/30 04:32:13;;;;;;;;;;;;;;;13.57;100.00;98181.03;5005447;28;20331;-60
2023/09/30 04:34:40;;;;;;;;;;;;;;;13.53;100.00;98180.72;5006900;28;19925;-60
2023/09/30 04:37:09;;;;;;;;;;;;;;;13.53;100.00;98178.00;5006376;28;19925;-60
2023/09/30 04:39:35;;;;;;;;;;;;;;;13.51;100.00;98185.56;5007848;28;20012;-61
2023/09/30 04:42:03;;;;;;;;;;;;;;;13.50;100.00;98192.88;5005726;28;19925;-61
2023/09/30 04:44:30;;;;;;;;;;;;;;;13.50;100.00;98190.16;5011098;28;19975;-61
2023/09/30 04:46:57;;;;;;;;;;;;;;;13.39;100.00;98175.56;5006323;28;19921;-60
2023/09/30 04:49:23;;;;;;;;;;;;;;;13.26;100.00;98184.09;5007493;28;19928;-60
2023/09/30 04:51:50;;;;;;;;;;;;;;;13.30;100.00;98196.13;5006922;28;19925;-60
2023/09/30 04:54:16;;;;;;;;;;;;;;;13.23;100.00;98196.28;5007130;28;19929;-60
2023/09/30 04:56:43;;;;;;;;;;;;;;;13.27;100.00;98204.78;5007021;28;20003;-60
2023/09/30 04:59:09;;;;;;;;;;;;;;;13.31;100.00;98205.94;5005791;28;19929;-60
2023/09/30 05:01:35;;;;;;;;;;;;;;;13.29;100.00;98205.34;5007094;28;19928;-59
2023/09/30 05:04:02;;;;;;;;;;;;;;;13.31;100.00;98213.28;5005833;28;19921;-60
2023/09/30 05:06:31;;;;;;;;;;;;;;;13.29;100.00;98216.22;5007218;28;19921;-60
2023/09/30 05:08:57;;;;;;;;;;;;;;;13.30;100.00;98209.72;5005752;28;20596;-60
2023/09/30 05:11:24;;;;;;;;;;;;;;;13.39;100.00;98208.22;5013548;28;19922;-60
2023/09/30 05:13:50;;;;;;;;;;;;;;;13.47;100.00;98211.59;5006006;28;20463;-60
2023/09/30 05:16:17;;;;;;;;;;;;;;;13.40;100.00;98209.88;5006387;28;19921;-60
2023/09/30 05:18:44;;;;;;;;;;;;;;;13.33;100.00;98211.09;5006924;28;19979;-59
2023/09/30 05:21:10;;;;;;;;;;;;;;;13.28;100.00;98206.44;5005409;28;19991;-60
2023/09/30 05:23:37;;;;;;;;;;;;;;;13.21;100.00;98198.44;5005836;28;19921;-60
2023/09/30 05:26:03;;;;;;;;;;;;;;;13.23;100.00;98203.66;5005838;28;19976;-60
2023/09/30 05:28:31;;;;;;;;;;;;;;;13.25;100.00;98205.03;5003714;28;20020;-60
2023/09/30 05:30:57;;;;;;;;;;;;;;;13.23;100.00;98199.00;5003848;28;20028;-60
2023/09/30 05:33:24;;;;;;;;;;;;;;;13.05;100.00;98188.41;5003295;28;19929;-60
2023/09/30 05:35:51;;;;;;;;;;;;;;;12.81;100.00;98202.16;5005295;28;20021;-60
2023/09/30 05:38:20;;;;;;;;;;;;;;;12.80;100.00;98214.94;5004256;28;19922;-60
2023/09/30 05:40:46;;;;;;;;;;;;;;;12.79;100.00;98215.19;5009742;28;19932;-61
2023/09/30 05:43:13;;;;;;;;;;;;;;;12.74;100.00;98216.72;5004842;28;20438;-61
2023/09/30 05:45:48;;;;;;;;;;;;;;;12.85;100.00;98211.47;5004388;28;20012;-60
2023/09/30 05:48:16;;;;;;;;;;;;;;;12.91;100.00;98223.25;5003224;28;19995;-60
2023/09/30 05:50:43;;;;;;;;;;;;;;;12.99;100.00;98234.53;5005843;28;19925;-60
2023/09/30 05:53:13;;;;;;;;;;;;;;;13.03;100.00;98215.84;4984643;28;20022;-60
2023/09/30 05:55:45;;;;;;;;;;;;;;;13.04;100.00;98219.38;5004129;28;19955;-60
2023/09/30 05:58:16;;;;;;;;;;;;;;;13.11;100.00;98210.00;5002631;28;19926;-60
2023/09/30 06:00:42;;;;;;;;;;;;;;;13.17;100.00;98208.19;5003468;28;19925;-59
2023/09/30 06:03:10;;;;;;;;;;;;;;;13.20;100.00;98212.28;5002573;28;19943;-61
2023/09/30 06:05:41;;;;;;;;;;;;;;;13.19;100.00;98221.53;5003088;28;19932;-61
2023/09/30 06:08:10;;;;;;;;;;;;;;;13.23;100.00;98231.66;5000955;28;19925;-61
2023/09/30 06:10:42;;;;;;;;;;;;;;;13.22;100.00;98248.19;5003227;28;19922;-60
2023/09/30 06:13:09;;;;;;;;;;;;;;;13.24;100.00;98255.03;4995448;28;19926;-60
2023/09/30 06:15:40;;;;;;;;;;;;;;;13.23;100.00;98258.03;5004112;28;19927;-60
2023/09/30 06:18:07;;;;;;;;;;;;;;;13.10;100.00;98264.59;5002364;28;20467;-60
2023/09/30 06:20:33;;;;;;;;;;;;;;;13.12;100.00;98265.19;5002444;28;19921;-60
2023/09/30 06:23:02;;;;;;;;;;;;;;;13.13;100.00;98258.69;5004145;28;19922;-61
2023/09/30 06:25:30;;;;;;;;;;;;;;;13.16;100.00;98254.66;5006176;28;19921;-60
2023/09/30 06:27:57;;;;;;;;;;;;;;;13.22;100.00;98256.38;5004599;28;19921;-60
2023/09/30 06:30:29;;;;;;;;;;;;;;;13.29;100.00;98259.75;5005770;28;19921;-60
2023/09/30 06:33:00;;;;;;;;;;;;;;;13.43;100.00;98252.09;5004087;28;19921;-60
2023/09/30 06:35:28;;;;;;;;;;;;;;;13.42;100.00;98252.31;5005376;28;19927;-60
2023/09/30 06:37:54;;;;;;;;;;;;;;;13.44;100.00;98261.03;5004381;28;19921;-60
2023/09/30 06:40:20;;;;;;;;;;;;;;;13.36;100.00;98260.41;4997597;28;19921;-60
2023/09/30 06:42:47;;;;;;;;;;;;;;;13.39;100.00;98267.25;5009226;28;20396;-60
2023/09/30 06:45:13;;;;;;;;;;;;;;;13.47;100.00;98271.44;5004240;28;19929;-60
2023/09/30 06:47:41;;;;;;;;;;;;;;;13.52;100.00;98275.09;5004615;28;19936;-60
2023/09/30 06:50:15;;;;;;;;;;;;;;;13.63;100.00;98276.06;5003740;28;20392;-60
2023/09/30 06:52:45;;;;;;;;;;;;;;;13.74;100.00;98281.66;5004986;28;19971;-60
2023/09/30 06:55:13;;;;;;;;;;;;;;;13.82;100.00;98277.69;5004255;28;19921;-60
2023/09/30 06:57:43;;;;;;;;;;;;;;;13.89;100.00;98279.16;5004858;28;19980;-60
2023/09/30 07:00:11;;;;;;;;;;;;;;;13.96;100.00;98262.63;5003809;28;19940;-60
2023/09/30 07:02:40;;;;;;;;;;;;;;;14.08;100.00;98264.44;5004984;28;19922;-60
2023/09/30 07:05:10;;;;;;;;;;;;;;;14.16;100.00;98261.25;5005014;28;19921;-60
2023/09/30 07:07:37;;;;;;;;;;;;;;;14.23;100.00;98261.88;5004681;28;20482;-60
2023/09/30 07:10:04;;;;;;;;;;;;;;;14.36;100.00;98257.94;5003199;28;19921;-60
2023/09/30 07:12:31;;;;;;;;;;;;;;;14.37;100.00;98259.59;5003955;28;19929;-60
2023/09/30 07:14:58;;;;;;;;;;;;;;;14.38;100.00;98258.50;5000976;28;19921;-61
2023/09/30 07:17:25;;;;;;;;;;;;;;;14.41;100.00;98266.16;5003803;28;19921;-60
2023/09/30 07:19:51;;;;;;;;;;;;;;;14.47;100.00;98279.84;4978429;28;19933;-60
2023/09/30 07:22:18;;;;;;;;;;;;;;;14.52;100.00;98279.94;4985026;28;19933;-60
2023/09/30 07:25:00;;;;;;;;;;;;;;;14.61;100.00;98288.47;4985853;28;20312;-60
2023/09/30 07:27:27;;;;;;;;;;;;;;;14.69;100.00;98296.19;4983497;28;19961;-60
2023/09/30 07:29:54;;;;;;;;;;;;;;;14.78;100.00;98293.84;5001634;28;19928;-60
2023/09/30 07:32:23;;;;;;;;;;;;;;;14.89;100.00;98298.31;5003512;28;19937;-60
2023/09/30 07:34:49;;;;;;;;;;;;;;;14.95;100.00;98285.56;5003032;28;19925;-60
2023/09/30 07:37:17;;;;;;;;;;;;;;;14.93;100.00;98291.25;5006677;28;20012;-60
2023/09/30 07:39:44;;;;;;;;;;;;;;;14.88;100.00;98299.41;5002221;28;20661;-60
2023/09/30 07:42:10;;;;;;;;;;;;;;;14.89;100.00;98305.69;5001247;28;19961;-60
2023/09/30 07:44:37;;;;;;;;;;;;;;;14.89;100.00;98305.69;5005342;28;19921;-60
2023/09/30 07:47:03;;;;;;;;;;;;;;;14.94;100.00;98314.75;5011260;28;20408;-60
2023/09/30 07:49:30;;;;;;;;;;;;;;;14.99;100.00;98318.59;5004274;28;19929;-60
2023/09/30 07:51:56;;;;;;;;;;;;;;;15.06;100.00;98320.03;5003030;28;20399;-61
2023/09/30 07:54:23;;;;;;;;;;;;;;;15.23;100.00;98321.84;5006964;28;20579;-60
2023/09/30 07:56:57;;;;;;;;;;;;;;;15.19;100.00;98317.97;5006286;28;19922;-60
2023/09/30 07:59:25;;;;;;;;;;;;;;;15.22;100.00;98314.72;5005842;28;20023;-60
2023/09/30 08:01:52;;;;;;;;;;;;;;;15.30;100.00;98310.69;5011086;28;19921;-60
2023/09/30 08:04:19;;;;;;;;;;;;;;;15.15;100.00;98297.75;5004940;28;19925;-60
2023/09/30 08:06:46;;;;;;;;;;;;;;;15.27;100.00;98301.13;5006338;28;20032;-60
2023/09/30 08:09:16;;;;;;;;;;;;;;;15.42;100.00;98305.06;5006737;28;19929;-60
2023/09/30 08:11:43;;;;;;;;;;;;;;;15.55;100.00;98296.41;5005829;28;20020;-60
2023/09/30 08:14:10;;;;;;;;;;;;;;;15.64;100.00;98296.78;5004804;28;20024;-61
2023/09/30 08:16:36;;;;;;;;;;;;;;;15.77;100.00;98302.84;5006188;28;19932;-61
2023/09/30 08:19:03;;;;;;;;;;;;;;;15.88;100.00;98303.75;5004535;28;20032;-60
2023/09/30 08:21:30;;;;;;;;;;;;;;;15.92;100.00;98308.41;5006218;28;19932;-61
2023/09/30 08:23:57;;;;;;;;;;;;;;;15.84;100.00;98311.63;5004930;28;19926;-61
2023/09/30 08:26:23;;;;;;;;;;;;;;;15.81;100.00;98307.50;5007453;28;20020;-60
2023/09/30 08:28:50;;;;;;;;;;;;;;;15.98;100.00;98298.34;5005926;28;19939;-60
2023/09/30 08:31:16;;;;;;;;;;;;;;;16.03;100.00;98313.97;5004298;28;20027;-60
2023/09/30 08:33:45;;;;;;;;;;;;;;;16.11;99.00;98316.19;5005333;28;20036;-60
2023/09/30 08:36:11;;;;;;;;;;;;;;;15.97;98.52;98303.03;5009346;28;19943;-60
2023/09/30 08:38:39;;;;;;;;;;;;;;;15.88;97.75;98290.88;5004753;28;19925;-60
2023/09/30 08:41:05;;;;;;;;;;;;;;;15.84;98.92;98279.69;5004142;28;19987;-60
2023/09/30 08:43:36;;;;;;;;;;;;;;;15.97;98.85;98294.00;5009488;28;19921;-60
2023/09/30 08:46:04;;;;;;;;;;;;;;;16.08;96.73;98306.63;5006176;28;20388;-60
2023/09/30 08:48:34;;;;;;;;;;;;;;;15.99;95.31;98300.81;5005475;28;19932;-60
2023/09/30 08:51:01;;;;;;;;;;;;;;;16.15;96.93;98300.09;5005839;28;19925;-60
2023/09/30 08:53:31;;;;;;;;;;;;;;;16.10;94.58;98298.13;5006870;28;19925;-60
2023/09/30 08:56:00;;;;;;;;;;;;;;;16.16;95.23;98290.78;5006289;28;19922;-61
2023/09/30 08:58:27;;;;;;;;;;;;;;;16.31;94.30;98281.84;5007008;28;20503;-61
2023/09/30 09:00:53;;;;;;;;;;;;;;;16.49;94.90;98284.13;5005766;28;19969;-60
2023/09/30 09:03:20;;;;;;;;;;;;;;;16.49;94.97;98284.13;5001859;28;20018;-60
2023/09/30 09:05:55;;;;;;;;;;;;;;;16.61;94.05;98292.06;5006666;28;20296;-60
2023/09/30 09:08:23;;;;;;;;;;;;;;;16.65;92.14;98297.81;5005916;28;19929;-61
2023/09/30 09:10:57;;;;;;;;;;;;;;;16.37;93.61;98306.19;5006658;28;20126;-60
2023/09/30 09:13:24;;;;;;;;;;;;;;;16.45;93.64;98317.72;5004198;28;19929;-60
2023/09/30 09:16:07;;;;;;;;;;;;;;;16.66;93.17;98318.59;5003405;28;19921;-61
2023/09/30 09:18:35;;;;;;;;;;;;;;;16.92;92.17;98315.94;5006320;28;19988;-60
2023/09/30 09:21:16;;;;;;;;;;;;;;;16.91;91.19;98314.28;5000824;28;19929;-60
2023/09/30 09:23:46;;;;;;;;;;;;;;;17.10;89.56;98311.06;5002638;28;19941;-60
2023/09/30 09:26:29;;;;;;;;;;;;;;;17.35;88.92;98314.91;5001294;28;19925;-60
2023/09/30 09:28:57;;;;;;;8.43;3.00;;;;;;;17.33;87.50;98306.97;5007606;28;19936;-60
2023/09/30 09:31:27;;;;;;;6.38;3.00;;;;;;;17.52;85.35;98304.53;4977604;28;20050;-60
2023/09/30 09:33:54;;;;;;;5.75;2.53;;;;;;;17.73;85.24;98300.94;5003358;28;20128;-62
2023/09/30 09:36:21;;;;;;;8.38;2.97;;;;;;;17.79;85.09;98288.84;5002660;28;20665;-60
2023/09/30 09:38:49;;;;;;;6.38;2.38;;;;;;;17.96;83.59;98295.94;5005299;28;20075;-60
2023/09/30 09:41:16;;;;;;;5.57;2.13;;;;;;;18.15;81.01;98293.44;5002273;28;20100;-61
2023/09/30 09:43:43;;;;;;;8.13;2.28;;;;;;;18.24;80.95;98283.53;5007428;28;20140;-62
2023/09/30 09:46:11;;;;;;;6.22;2.40;;;;;;;18.32;80.46;98284.91;5002878;28;20058;-62
2023/09/30 09:48:38;;;;;;;10.70;3.65;;;;;;;18.42;79.43;98282.09;5003037;28;20046;-61
2023/09/30 09:51:08;;;;;;;8.52;2.60;;;;;;;18.43;79.07;98286.47;5001249;28;20210;-62
2023/09/30 09:53:38;;;;;;;8.63;2.63;;;;;;;18.44;78.59;98279.91;5003569;28;20042;-62
2023/09/30 09:56:09;;;;;;;;;;;;;;;18.48;78.40;98280.16;5004162;28;20037;-62
2023/09/30 09:58:38;;;;;;;5.70;2.60;;;;;;;18.56;78.05;98285.06;5003511;28;19925;-61
2023/09/30 10:01:09;;;;;;;5.90;2.70;;;;;;;18.49;78.53;98279.06;5001934;28;20121;-61
2023/09/30 10:03:38;;;;;;;7.57;2.70;;;;;;;18.50;78.29;98283.44;5002970;28;20061;-60
2023/09/30 10:06:06;;;;;;;7.95;2.38;;;;;;;18.40;78.19;98281.56;5002291;28;20104;-61
2023/09/30 10:08:40;;;;;;;6.97;2.38;;;;;;;18.35;78.22;98278.84;5003064;28;20140;-61
2023/09/30 10:11:09;;;;;;;6.95;2.53;;;;;;;18.26;77.88;98266.81;5000678;28;20122;-61
2023/09/30 10:13:56;;;;;;;8.50;2.80;;;;;;;18.18;78.94;98270.97;5002846;28;20052;-62
2023/09/30 10:16:34;;;;;;;10.07;2.97;;;;;;;18.14;81.28;98273.44;5002156;28;20432;-61
2023/09/30 10:19:12;;;;;;;7.55;2.83;;;;;;;18.14;80.17;98264.41;5002028;28;20493;-61
2023/09/30 10:21:39;;;;;;;7.38;2.90;;;;;;;18.14;80.14;98265.22;5002815;28;20038;-61
2023/09/30 10:24:24;;;;;;;6.90;2.67;;;;;;;18.10;80.74;98264.16;5004119;28;20050;-62
2023/09/30 10:27:21;;;;;;;7.72;2.38;;;;;;;17.91;81.64;98269.41;5003559;28;20540;-61
2023/09/30 10:29:53;;;;;;;8.85;2.55;;;;;;;17.93;81.46;98273.50;4999404;28;20100;-62
2023/09/30 10:32:19;;;;;;;5.88;2.60;;;;;;;18.00;81.17;98262.25;5001169;28;20048;-61
2023/09/30 10:34:51;;;;;;;6.65;2.72;;;;;;;17.87;81.41;98262.84;5002366;28;20054;-62
2023/09/30 10:37:21;;;;;;;6.15;3.08;;;;;;;17.86;81.19;98264.75;5001983;28;20068;-61
2023/09/30 10:39:57;;;;;;;5.82;2.78;;;;;;;17.79;81.14;98256.81;5002707;28;20516;-61
2023/09/30 10:42:46;;;;;;;7.22;2.72;;;;;;;17.87;80.88;98262.84;5001173;28;20099;-60
2023/09/30 10:45:38;;;;;;;7.63;2.80;;;;;;;17.97;80.20;98260.06;5000640;28;20060;-62
2023/09/30 10:48:24;;;;;;;;;;;;;;;17.89;80.52;98253.22;5000865;28;20042;-61
2023/09/30 10:51:01;;;;;;;6.97;3.10;;;;;;;18.06;79.96;98263.84;4998860;28;20537;-61
2023/09/30 10:53:28;;;;;;;7.35;2.67;;;;;;;18.31;78.21;98262.13;5001657;28;20819;-61
2023/09/30 10:55:59;;;;;;;7.93;2.58;;;;;;;18.47;76.94;98251.09;5002827;28;20561;-61
2023/09/30 10:58:44;;;;;;;;;;;;;;;18.54;75.87;98257.09;5000972;28;20069;-61
2023/09/30 11:01:13;;;;;;;7.22;2.17;;;;;;;18.53;75.73;98249.13;4999801;28;20475;-61
2023/09/30 11:03:44;;;;;;;6.30;2.40;;;;;;;18.57;75.46;98248.28;5004152;28;20073;-61
2023/09/30 11:06:19;;;;;;;7.15;2.60;;;;;;;18.63;74.92;98240.03;5001779;28;20045;-61
2023/09/30 11:08:52;;;;;;;6.95;2.40;;;;;;;18.68;75.16;98242.75;4977692;28;20501;-61
2023/09/30 11:11:18;;;;;;;7.28;2.70;;;;;;;18.67;75.44;98236.44;4990065;28;20076;-62
2023/09/30 11:13:45;;;;;;;6.10;2.28;;;;;;;18.75;75.10;98239.69;4997681;28;20497;-60
2023/09/30 11:16:12;;;;;;;6.63;2.72;;;;;;;18.77;74.03;98241.06;5001100;28;20497;-61
2023/09/30 11:18:39;;;;;;;9.52;2.90;;;;;;;18.97;72.97;98233.75;5002507;28;20046;-61
2023/09/30 11:21:11;;;;;;;7.68;2.63;;;;;;;19.14;71.14;98227.91;5000495;28;20058;-61
2023/09/30 11:23:38;;;;;;;8.00;3.03;;;;;;;19.27;69.42;98229.16;5000987;28;20056;-62
2023/09/30 11:26:05;;;;;;;7.35;2.42;;;;;;;19.57;68.51;98240.94;4974155;28;20600;-62
2023/09/30 11:28:44;;;;;;;7.88;3.05;;;;;;;19.52;67.13;98223.69;5001713;28;20069;-61
2023/09/30 11:31:14;;;;;;;6.60;2.60;;;;;;;19.71;66.61;98241.09;4999911;28;20111;-60
2023/09/30 11:33:52;;;;;;;8.45;3.63;;;;;;;19.96;66.27;98239.19;5001583;28;20049;-61
2023/09/30 11:36:21;;;;;;;8.07;3.22;;;;;;;19.96;65.53;98236.44;4979915;28;20056;-63
2023/09/30 11:38:49;;;;;;;8.13;3.17;;;;;;;19.75;65.42;98242.16;5001748;28;20593;-63
2023/09/30 11:41:18;;;;;;;6.47;2.58;;;;;;;19.85;65.40;98238.47;5000520;28;20509;-61
2023/09/30 11:44:10;;;;;;;6.82;2.83;;;;;;;19.98;66.27;98231.47;5006702;28;20049;-63
2023/09/30 11:47:00;;;;;;;8.13;2.80;;;;;;;20.02;66.43;98223.47;4996194;28;20038;-65
2023/09/30 11:49:34;;;;;;;7.50;3.42;;;;;;;19.87;66.59;98221.69;4994591;28;20038;-63
2023/09/30 11:52:03;;;;;;;11.23;3.03;;;;;;;20.01;64.67;98222.66;5000672;28;20038;-64
2023/09/30 11:54:32;;;;;;;8.88;3.15;;;;;;;20.25;62.55;98220.97;4999679;28;20069;-62
2023/09/30 11:57:00;;;;;;;7.97;3.10;;;;;;;20.28;63.33;98225.91;4999070;28;20054;-63
2023/09/30 11:59:26;;;;;;;8.93;3.20;;;;;;;20.28;63.66;98225.91;4999806;28;20052;-62
2023/09/30 12:01:53;;;;;;;8.70;3.05;;;;;;;20.03;63.07;98233.34;5000273;28;20041;-62
2023/09/30 12:04:38;;;;;;;8.02;3.30;;;;;;;19.94;62.57;98232.34;4997069;28;20042;-61
2023/09/30 12:07:08;;;;;;;8.20;3.03;;;;;;;19.98;62.76;98236.13;4984073;28;20437;-62
2023/09/30 12:09:37;;;;;;;7.82;3.15;;;;;;;19.88;63.20;98235.16;4998994;28;20061;-60
2023/09/30 12:12:04;;;;;;;7.72;2.83;;;;;;;19.83;63.18;98231.63;4999879;28;20129;-61
2023/09/30 12:14:31;;;;;;;8.85;3.78;;;;;;;19.65;63.61;98227.69;5001210;28;20065;-60
2023/09/30 12:16:58;;;;;;;9.30;3.97;;;;;;;19.61;62.49;98233.78;5001699;28;20049;-61
2023/09/30 12:19:26;;;;;;;11.75;3.47;;;;;;;19.43;62.79;98229.84;4998037;28;20056;-60
2023/09/30 12:21:53;;;;;;;10.18;3.70;;;;;;;19.40;62.67;98232.34;5001494;28;20056;-60
2023/09/30 12:24:21;;;;;;;8.60;3.03;;;;;;;19.50;61.27;98227.56;5002552;28;20053;-60
2023/09/30 12:26:49;;;;;;;10.85;3.05;;;;;;;19.70;61.20;98222.97;5000714;28;20420;-61
2023/09/30 12:29:17;;;;;;;9.90;3.47;;;;;;;19.85;59.56;98222.00;5000789;28;20050;-60